Time;durP1;ratioP1;P1;durP2;ratioP2;P2;SDS_P1;SDS_P2;PMS_P1;PMS_P2;Temp;Humidity;BMP_temperature;BMP_pressure;BME280_temperature;BME280_humidity;BME280_pressure;Samples;Min_cycle;Max_cycle;Signal;HPM_P1;HPM_P2
2024/01/20 00:00:46;;;;;;;10.27;4.05;;;1.80;99.90;;;;;;5066830;28;20044;-50
2024/01/20 00:03:11;;;;;;;13.38;4.90;;;1.90;99.90;;;;;;5064099;28;20261;-48
2024/01/20 00:05:37;;;;;;;15.02;4.70;;;1.90;99.90;;;;;;5066887;28;20858;-48
2024/01/20 00:08:03;;;;;;;13.10;4.15;;;1.90;99.90;;;;;;5064323;28;20040;-46
2024/01/20 00:10:29;;;;;;;12.02;4.85;;;1.80;99.90;;;;;;5065298;28;20055;-46
2024/01/20 00:12:55;;;;;;;16.60;5.43;;;1.90;99.90;;;;;;5064991;28;20044;-47
2024/01/20 00:15:20;;;;;;;11.15;4.47;;;1.90;99.90;;;;;;5065726;28;20469;-47
2024/01/20 00:17:46;;;;;;;13.35;4.95;;;1.80;99.90;;;;;;5068017;28;20028;-47
2024/01/20 00:20:12;;;;;;;10.20;4.72;;;1.80;99.90;;;;;;5055957;28;20491;-47
2024/01/20 00:22:38;;;;;;;9.90;4.80;;;1.80;99.90;;;;;;5060383;28;20047;-51
2024/01/20 00:25:04;;;;;;;11.70;5.32;;;1.80;99.90;;;;;;5058830;28;20169;-50
2024/01/20 00:27:30;;;;;;;10.32;4.15;;;1.80;99.90;;;;;;5064864;28;20462;-46
2024/01/20 00:29:56;;;;;;;8.15;4.50;;;1.90;99.90;;;;;;5062127;28;20056;-49
2024/01/20 00:32:22;;;;;;;10.68;5.00;;;1.90;99.90;;;;;;5061120;28;20132;-48
2024/01/20 00:34:47;;;;;;;14.93;5.90;;;1.80;99.90;;;;;;5055125;28;20080;-51
2024/01/20 00:37:13;;;;;;;14.40;5.10;;;1.80;99.90;;;;;;5059632;28;20469;-48
2024/01/20 00:39:39;;;;;;;13.80;6.30;;;1.70;99.90;;;;;;5060402;28;20111;-49
2024/01/20 00:42:05;;;;;;;12.48;5.60;;;1.70;99.90;;;;;;5047678;28;20533;-47
2024/01/20 00:44:30;;;;;;;10.30;5.15;;;1.70;99.90;;;;;;5046698;28;20119;-46
2024/01/20 00:46:56;;;;;;;18.65;5.82;;;1.70;99.90;;;;;;5063757;28;20047;-48
2024/01/20 00:49:22;;;;;;;13.27;5.78;;;1.80;99.90;;;;;;5057591;28;20040;-47
2024/01/20 00:51:48;;;;;;;8.95;5.80;;;1.90;99.90;;;;;;5064759;28;20036;-51
2024/01/20 00:54:13;;;;;;;15.27;6.35;;;1.80;99.90;;;;;;5060814;28;20040;-49
2024/01/20 00:56:39;;;;;;;14.30;6.35;;;1.70;99.90;;;;;;5064647;28;20040;-51
2024/01/20 00:59:05;;;;;;;11.93;6.53;;;1.80;99.90;;;;;;5065831;28;20040;-48
2024/01/20 01:01:30;;;;;;;12.90;5.95;;;1.70;99.90;;;;;;5063841;28;20131;-47
2024/01/20 01:03:56;;;;;;;20.45;7.60;;;1.70;99.90;;;;;;5059847;28;20376;-50
2024/01/20 01:06:22;;;;;;;14.02;6.55;;;1.80;99.90;;;;;;5061621;28;20129;-49
2024/01/20 01:08:48;;;;;;;17.98;7.68;;;1.70;99.90;;;;;;5060606;28;20044;-47
2024/01/20 01:11:13;;;;;;;18.45;7.30;;;1.70;99.90;;;;;;5060945;28;20491;-50
2024/01/20 01:13:40;;;;;;;14.73;7.47;;;1.80;99.90;;;;;;5063965;28;20045;-47
2024/01/20 01:16:06;;;;;;;18.33;7.22;;;1.80;99.90;;;;;;5050416;28;20054;-50
2024/01/20 01:18:33;;;;;;;14.07;6.88;;;1.80;99.90;;;;;;5065764;28;20561;-48
2024/01/20 01:20:58;;;;;;;18.45;7.80;;;1.70;99.90;;;;;;5064160;28;20033;-48
2024/01/20 01:23:24;;;;;;;12.52;6.82;;;1.70;99.90;;;;;;5063406;28;20036;-47
2024/01/20 01:25:50;;;;;;;17.15;7.22;;;1.70;99.90;;;;;;5064402;28;20052;-50
2024/01/20 01:28:15;;;;;;;14.55;7.85;;;1.70;99.90;;;;;;5063931;28;20071;-49
2024/01/20 01:30:41;;;;;;;12.13;7.47;;;1.70;99.90;;;;;;5062980;28;20077;-51
2024/01/20 01:33:07;;;;;;;14.52;7.05;;;1.70;99.90;;;;;;5064863;28;20614;-50
2024/01/20 01:35:33;;;;;;;12.60;6.78;;;1.70;99.90;;;;;;5064859;28;20049;-49
2024/01/20 01:37:58;;;;;;;13.43;7.13;;;1.80;99.90;;;;;;5064120;28;20338;-51
2024/01/20 01:40:28;;;;;;;15.15;6.95;;;1.70;99.90;;;;;;5060519;28;20043;-51
2024/01/20 01:42:56;;;;;;;20.30;7.55;;;1.70;99.90;;;;;;5063161;28;20667;-47
2024/01/20 01:45:26;;;;;;;15.10;7.93;;;1.80;99.90;;;;;;5056866;28;20047;-49
2024/01/20 01:47:55;;;;;;;14.68;7.30;;;1.80;99.90;;;;;;5059972;28;20417;-50
2024/01/20 01:50:21;;;;;;;;;;;1.80;99.90;;;;;;5064159;28;20047;-48
2024/01/20 01:52:50;;;;;;;15.40;7.43;;;2.00;99.90;;;;;;5057585;28;19920;-51
2024/01/20 01:55:16;;;;;;;18.00;8.10;;;1.90;99.90;;;;;;5061403;28;20165;-52
2024/01/20 01:57:42;;;;;;;18.67;7.68;;;1.90;99.90;;;;;;5063265;28;20374;-51
2024/01/20 02:00:09;;;;;;;16.30;7.35;;;2.00;99.90;;;;;;5064607;28;20041;-51
2024/01/20 02:02:35;;;;;;;16.88;7.45;;;2.00;99.90;;;;;;5063923;28;20089;-51
2024/01/20 02:05:01;;;;;;;31.42;7.97;;;2.00;99.90;;;;;;5063897;28;20029;-49
2024/01/20 02:07:29;;;;;;;15.52;7.82;;;1.90;99.90;;;;;;5063591;28;20059;-50
2024/01/20 02:09:55;;;;;;;17.00;7.00;;;1.90;99.90;;;;;;5053253;28;20090;-46
2024/01/20 02:12:21;;;;;;;13.35;7.57;;;1.90;99.90;;;;;;5055263;28;20497;-46
2024/01/20 02:14:48;;;;;;;11.27;7.97;;;1.80;99.90;;;;;;5059825;28;20036;-49
2024/01/20 02:17:14;;;;;;;15.05;7.43;;;1.80;99.90;;;;;;5065666;28;20040;-47
2024/01/20 02:19:40;;;;;;;13.98;8.77;;;1.80;99.90;;;;;;5066024;28;20109;-52
2024/01/20 02:22:14;;;;;;;12.70;7.20;;;1.80;99.90;;;;;;5064221;28;20409;-53
2024/01/20 02:24:45;;;;;;;17.27;7.95;;;1.80;99.90;;;;;;5060641;28;20507;-48
2024/01/20 02:27:11;;;;;;;16.60;7.93;;;1.80;99.90;;;;;;5059778;28;20107;-50
2024/01/20 02:29:39;;;;;;;20.42;8.38;;;1.70;99.90;;;;;;5062904;28;20052;-52
2024/01/20 02:32:05;;;;;;;22.25;8.75;;;1.70;99.90;;;;;;5062338;28;20455;-48
2024/01/20 02:34:30;;;;;;;15.18;7.90;;;1.70;99.90;;;;;;5063093;28;20426;-49
2024/01/20 02:36:56;;;;;;;16.00;8.85;;;1.70;99.90;;;;;;5050594;28;20049;-48
2024/01/20 02:39:22;;;;;;;15.02;8.57;;;1.70;99.90;;;;;;5053558;28;20045;-52
2024/01/20 02:41:48;;;;;;;14.88;8.02;;;1.70;99.90;;;;;;5058476;28;20083;-49
2024/01/20 02:44:14;;;;;;;16.55;8.25;;;1.60;99.90;;;;;;5061465;28;20546;-50
2024/01/20 02:46:39;;;;;;;17.00;7.93;;;1.70;99.90;;;;;;5049607;28;20080;-49
2024/01/20 02:49:05;;;;;;;15.43;8.48;;;1.60;99.90;;;;;;5041172;28;20152;-49
2024/01/20 02:51:31;;;;;;;14.77;8.98;;;1.70;99.90;;;;;;5061777;28;20406;-49
2024/01/20 02:53:58;;;;;;;15.18;8.57;;;1.70;99.90;;;;;;5062827;28;20560;-47
2024/01/20 02:56:24;;;;;;;17.40;9.25;;;1.60;99.90;;;;;;5058347;28;20056;-48
2024/01/20 02:58:51;;;;;;;14.88;9.80;;;1.70;99.90;;;;;;5060122;28;20037;-49
2024/01/20 03:01:16;;;;;;;15.30;9.27;;;1.80;99.90;;;;;;5062263;28;20036;-49
2024/01/20 03:03:43;;;;;;;17.77;10.35;;;2.00;99.90;;;;;;5060666;28;20541;-48
2024/01/20 03:06:09;;;;;;;20.55;10.30;;;1.70;99.90;;;;;;5061344;28;20059;-46
2024/01/20 03:08:34;;;;;;;20.65;11.27;;;1.70;99.90;;;;;;5062075;28;20119;-47
2024/01/20 03:11:00;;;;;;;23.63;10.93;;;1.60;99.90;;;;;;5058459;28;20040;-46
2024/01/20 03:13:26;;;;;;;15.60;10.98;;;1.70;99.90;;;;;;5061473;28;20071;-47
2024/01/20 03:15:52;;;;;;;17.15;11.50;;;1.60;99.90;;;;;;5045195;28;20045;-46
2024/01/20 03:18:17;;;;;;;17.02;12.07;;;1.60;99.90;;;;;;5054860;28;20056;-47
2024/01/20 03:20:43;;;;;;;19.30;11.85;;;1.50;99.90;;;;;;5059974;28;20081;-47
2024/01/20 03:23:09;;;;;;;21.92;12.73;;;1.50;99.90;;;;;;5056605;28;20037;-47
2024/01/20 03:25:35;;;;;;;22.30;13.60;;;1.50;99.90;;;;;;5059149;28;20040;-49
2024/01/20 03:28:01;;;;;;;19.42;12.93;;;1.80;99.90;;;;;;5060472;28;20040;-46
2024/01/20 03:30:26;;;;;;;21.52;13.00;;;1.60;99.90;;;;;;5059784;28;20083;-50
2024/01/20 03:32:52;;;;;;;22.02;13.32;;;1.50;99.90;;;;;;5061339;28;20961;-50
2024/01/20 03:35:18;;;;;;;22.38;13.75;;;1.50;99.90;;;;;;5059069;28;20048;-46
2024/01/20 03:37:43;;;;;;;19.33;13.73;;;1.50;99.90;;;;;;5060920;28;20032;-49
2024/01/20 03:40:09;;;;;;;25.83;13.88;;;1.50;99.90;;;;;;5061477;28;20032;-49
2024/01/20 03:42:35;;;;;;;22.48;14.55;;;1.50;99.90;;;;;;5042945;28;20037;-47
2024/01/20 03:45:01;;;;;;;25.27;15.25;;;1.40;99.90;;;;;;5056713;28;20072;-49
2024/01/20 03:47:26;;;;;;;21.95;15.20;;;1.40;99.90;;;;;;5054524;28;20428;-50
2024/01/20 03:49:52;;;;;;;26.40;15.85;;;1.30;99.90;;;;;;5057752;28;20509;-49
2024/01/20 03:52:18;;;;;;;23.02;15.20;;;1.40;99.90;;;;;;5055506;28;20099;-48
2024/01/20 03:54:44;;;;;;;24.75;16.40;;;1.40;99.90;;;;;;5057083;28;20463;-48
2024/01/20 03:57:10;;;;;;;25.83;16.52;;;1.30;99.90;;;;;;5052617;28;20048;-49
2024/01/20 03:59:37;;;;;;;24.30;15.40;;;1.40;99.90;;;;;;5055745;28;20140;-48
2024/01/20 04:02:02;;;;;;;26.52;15.68;;;1.30;99.90;;;;;;5061079;28;20090;-48
2024/01/20 04:04:28;;;;;;;25.33;16.50;;;1.30;99.90;;;;;;5059856;28;20040;-47
2024/01/20 04:06:54;;;;;;;21.17;15.80;;;1.30;99.90;;;;;;5058213;28;20041;-47
2024/01/20 04:09:20;;;;;;;28.70;16.27;;;1.30;99.90;;;;;;5056065;28;20051;-47
2024/01/20 04:11:45;;;;;;;29.13;16.48;;;1.40;99.90;;;;;;5042333;28;20499;-47
2024/01/20 04:14:11;;;;;;;24.73;16.15;;;1.30;99.90;;;;;;5058559;28;20049;-49
2024/01/20 04:16:37;;;;;;;27.85;16.70;;;1.30;99.90;;;;;;5050223;28;20431;-47
2024/01/20 04:19:03;;;;;;;28.30;16.23;;;1.20;99.90;;;;;;5056605;28;20373;-48
2024/01/20 04:21:28;;;;;;;28.85;16.45;;;1.30;99.90;;;;;;5056388;28;20044;-51
2024/01/20 04:23:54;;;;;;;27.73;16.83;;;1.20;99.90;;;;;;5061303;28;20039;-47
2024/01/20 04:26:21;;;;;;;29.67;16.80;;;1.30;99.90;;;;;;5059371;28;20403;-48
2024/01/20 04:28:46;;;;;;;26.92;16.40;;;1.30;99.90;;;;;;5058967;28;20411;-48
2024/01/20 04:31:12;;;;;;;29.70;17.42;;;1.20;99.90;;;;;;5059184;28;20173;-50
2024/01/20 04:33:39;;;;;;;28.63;17.20;;;1.20;99.90;;;;;;5042913;28;20143;-46
2024/01/20 04:36:05;;;;;;;27.92;17.48;;;1.30;99.90;;;;;;5059983;28;20507;-48
2024/01/20 04:38:31;;;;;;;26.52;16.35;;;1.30;99.90;;;;;;5059604;28;20540;-48
2024/01/20 04:40:57;;;;;;;31.90;17.65;;;1.20;99.90;;;;;;5062983;28;20148;-50
2024/01/20 04:43:23;;;;;;;26.85;16.75;;;1.20;99.90;;;;;;5064241;28;20040;-48
2024/01/20 04:45:48;;;;;;;25.70;15.32;;;1.30;99.90;;;;;;5065079;28;20113;-49
2024/01/20 04:48:16;;;;;;;22.60;16.60;;;1.20;99.90;;;;;;5066004;28;20503;-48
2024/01/20 04:50:42;;;;;;;28.83;16.75;;;1.20;99.90;;;;;;5063861;28;20043;-51
2024/01/20 04:53:08;;;;;;;26.83;16.63;;;1.10;99.90;;;;;;5061080;28;20041;-46
2024/01/20 04:55:33;;;;;;;24.95;16.85;;;1.20;99.90;;;;;;5063903;28;20050;-49
2024/01/20 04:58:00;;;;;;;28.48;17.95;;;1.20;99.90;;;;;;5055159;28;20544;-50
2024/01/20 05:00:26;;;;;;;26.95;17.67;;;1.10;99.90;;;;;;5060339;28;20040;-47
2024/01/20 05:02:52;;;;;;;23.40;16.13;;;1.20;99.90;;;;;;5063672;28;20040;-48
2024/01/20 05:05:18;;;;;;;28.80;16.75;;;1.10;99.90;;;;;;5058103;28;20584;-49
2024/01/20 05:07:43;;;;;;;27.83;17.13;;;1.10;99.90;;;;;;5058798;28;20044;-49
2024/01/20 05:10:09;;;;;;;31.25;16.75;;;1.10;99.90;;;;;;5061559;28;20041;-48
2024/01/20 05:12:35;;;;;;;28.33;18.80;;;1.00;99.90;;;;;;5062631;28;20043;-47
2024/01/20 05:15:01;;;;;;;28.88;18.63;;;0.90;99.90;;;;;;5060588;28;20028;-48
2024/01/20 05:17:26;;;;;;;26.80;18.13;;;0.90;99.90;;;;;;5058850;28;20045;-49
2024/01/20 05:19:52;;;;;;;27.73;18.88;;;0.90;99.90;;;;;;5060194;28;20090;-47
2024/01/20 05:22:18;;;;;;;28.42;18.67;;;0.90;99.90;;;;;;5062224;28;20048;-48
2024/01/20 05:24:44;;;;;;;30.90;18.80;;;0.90;99.90;;;;;;5064002;28;20106;-48
2024/01/20 05:27:10;;;;;;;36.33;18.63;;;0.90;99.90;;;;;;5062118;28;20044;-47
2024/01/20 05:29:36;;;;;;;27.55;18.90;;;0.90;99.90;;;;;;5062019;28;20145;-47
2024/01/20 05:32:02;;;;;;;29.40;18.35;;;0.90;99.90;;;;;;5063408;28;20538;-49
2024/01/20 05:34:28;;;;;;;35.85;20.10;;;1.00;99.90;;;;;;5059127;28;20494;-47
2024/01/20 05:36:54;;;;;;;29.95;18.67;;;0.90;99.90;;;;;;5060214;28;20044;-48
2024/01/20 05:39:19;;;;;;;31.38;19.52;;;0.90;99.90;;;;;;5055805;28;20554;-48
2024/01/20 05:41:45;;;;;;;37.25;19.38;;;0.80;99.90;;;;;;5061307;28;20076;-48
2024/01/20 05:44:11;;;;;;;29.30;18.63;;;0.90;99.90;;;;;;5060938;28;20565;-48
2024/01/20 05:46:36;;;;;;;30.83;19.20;;;0.80;99.90;;;;;;5063859;28;20414;-50
2024/01/20 05:49:02;;;;;;;32.10;19.33;;;0.80;99.90;;;;;;5062060;28;20036;-48
2024/01/20 05:51:28;;;;;;;32.50;19.63;;;0.80;99.90;;;;;;5061555;28;20491;-51
2024/01/20 05:53:54;;;;;;;35.92;20.38;;;0.70;99.90;;;;;;5064079;28;20032;-50
2024/01/20 05:56:21;;;;;;;34.15;19.88;;;0.60;99.90;;;;;;5058058;28;20052;-48
2024/01/20 05:58:47;;;;;;;35.42;19.60;;;0.70;99.90;;;;;;5063239;28;20051;-48
2024/01/20 06:01:13;;;;;;;33.72;20.95;;;0.60;99.90;;;;;;5062113;28;20044;-49
2024/01/20 06:03:39;;;;;;;35.33;19.50;;;0.60;99.90;;;;;;5059799;28;20052;-48
2024/01/20 06:06:05;;;;;;;33.33;19.60;;;0.60;99.90;;;;;;5039688;28;20044;-49
2024/01/20 06:08:30;;;;;;;33.03;19.70;;;0.50;99.90;;;;;;5061667;28;20380;-48
2024/01/20 06:10:56;;;;;;;37.80;22.00;;;0.50;99.90;;;;;;5056646;28;20040;-48
2024/01/20 06:13:22;;;;;;;38.10;20.92;;;0.50;99.90;;;;;;5059481;28;20094;-46
2024/01/20 06:15:48;;;;;;;40.35;21.10;;;0.50;99.90;;;;;;5055741;28;20041;-48
2024/01/20 06:18:13;;;;;;;40.33;22.10;;;0.50;99.90;;;;;;5061788;28;20480;-49
2024/01/20 06:20:39;;;;;;;36.60;19.55;;;0.50;99.90;;;;;;5060119;28;20067;-52
2024/01/20 06:23:05;;;;;;;38.65;20.23;;;0.50;99.90;;;;;;5058625;28;20047;-51
2024/01/20 06:25:31;;;;;;;34.35;20.08;;;0.50;99.90;;;;;;5058572;28;20102;-50
2024/01/20 06:27:57;;;;;;;36.50;19.98;;;0.50;99.90;;;;;;5057636;28;20059;-46
2024/01/20 06:30:23;;;;;;;38.22;19.52;;;0.40;99.90;;;;;;5057209;28;20040;-48
2024/01/20 06:32:48;;;;;;;35.22;20.15;;;0.40;99.90;;;;;;5060093;28;20482;-48
2024/01/20 06:35:14;;;;;;;37.35;20.77;;;0.40;99.90;;;;;;5060647;28;20070;-48
2024/01/20 06:37:40;;;;;;;41.65;20.73;;;0.50;99.90;;;;;;5065607;28;20040;-47
2024/01/20 06:40:06;;;;;;;31.17;18.65;;;0.60;99.90;;;;;;5062644;28;20037;-49
2024/01/20 06:42:32;;;;;;;36.78;18.63;;;0.60;99.90;;;;;;5051877;28;20086;-48
2024/01/20 06:44:58;;;;;;;37.28;20.92;;;0.60;99.90;;;;;;5055122;28;20171;-50
2024/01/20 06:47:25;;;;;;;35.95;19.00;;;0.60;99.90;;;;;;5049101;28;20040;-46
2024/01/20 06:49:53;;;;;;;33.08;19.30;;;0.50;99.90;;;;;;5056336;28;20056;-47
2024/01/20 06:52:20;;;;;;;39.38;19.33;;;0.50;99.90;;;;;;5061120;28;20045;-50
2024/01/20 06:54:45;;;;;;;34.45;18.92;;;0.50;99.90;;;;;;5062664;28;20045;-50
2024/01/20 06:57:12;;;;;;;31.25;18.50;;;0.40;99.90;;;;;;5059748;28;20048;-46
2024/01/20 06:59:38;;;;;;;34.47;19.38;;;0.40;99.90;;;;;;5057561;28;20045;-46
2024/01/20 07:02:04;;;;;;;32.97;19.75;;;0.40;99.90;;;;;;5055330;28;20051;-48
2024/01/20 07:04:30;;;;;;;30.83;19.42;;;0.40;99.90;;;;;;5058483;28;20443;-45
2024/01/20 07:06:56;;;;;;;36.03;19.08;;;0.40;99.90;;;;;;5058650;28;20051;-46
2024/01/20 07:09:22;;;;;;;34.78;19.08;;;0.40;99.90;;;;;;5044692;28;20402;-48
2024/01/20 07:11:48;;;;;;;37.10;19.55;;;0.40;99.90;;;;;;5055481;28;20044;-46
2024/01/20 07:14:13;;;;;;;37.50;19.85;;;0.40;99.90;;;;;;5057036;28;20105;-47
2024/01/20 07:16:39;;;;;;;38.13;20.23;;;0.40;99.90;;;;;;5051419;28;20679;-45
2024/01/20 07:19:05;;;;;;;36.42;21.10;;;0.40;99.90;;;;;;5057273;28;20055;-45
2024/01/20 07:21:30;;;;;;;35.42;18.60;;;0.40;99.90;;;;;;5058170;28;20491;-46
2024/01/20 07:23:56;;;;;;;36.45;20.13;;;0.40;99.90;;;;;;5054077;28;20039;-47
2024/01/20 07:26:22;;;;;;;32.70;18.80;;;0.50;99.90;;;;;;5053313;28;20545;-48
2024/01/20 07:28:48;;;;;;;33.15;18.67;;;0.60;99.90;;;;;;5058457;28;20039;-48
2024/01/20 07:31:13;;;;;;;39.95;20.48;;;0.60;99.90;;;;;;5057243;28;20571;-48
2024/01/20 07:33:40;;;;;;;38.28;20.35;;;0.60;99.90;;;;;;5058211;28;20114;-45
2024/01/20 07:36:06;;;;;;;30.17;18.42;;;0.60;99.90;;;;;;5057706;28;20546;-47
2024/01/20 07:38:32;;;;;;;41.85;20.92;;;0.60;99.90;;;;;;5057463;28;20056;-49
2024/01/20 07:40:59;;;;;;;41.88;19.58;;;0.70;99.90;;;;;;5056604;28;20606;-45
2024/01/20 07:43:25;;;;;;;41.03;20.60;;;0.60;99.90;;;;;;5056882;28;21135;-47
2024/01/20 07:45:54;;;;;;;42.85;20.65;;;0.60;99.90;;;;;;5056938;28;20044;-47
2024/01/20 07:48:20;;;;;;;39.05;20.50;;;0.60;99.90;;;;;;5056873;28;20033;-46
2024/01/20 07:50:46;;;;;;;39.15;19.80;;;0.60;99.90;;;;;;5048227;28;20594;-47
2024/01/20 07:53:12;;;;;;;38.03;19.50;;;0.60;99.90;;;;;;5057671;28;20059;-47
2024/01/20 07:55:38;;;;;;;40.55;20.15;;;0.70;99.90;;;;;;5058573;28;20052;-46
2024/01/20 07:58:03;;;;;;;42.20;20.40;;;0.80;99.90;;;;;;5057967;28;20041;-49
2024/01/20 08:00:29;;;;;;;42.38;21.52;;;0.90;99.90;;;;;;5059180;28;20155;-47
2024/01/20 08:02:55;;;;;;;43.95;21.42;;;0.90;99.90;;;;;;5059069;28;20120;-46
2024/01/20 08:05:20;;;;;;;41.22;19.73;;;0.90;99.90;;;;;;5058233;28;20074;-50
2024/01/20 08:07:46;;;;;;;40.30;21.65;;;1.00;99.90;;;;;;5058711;28;20041;-49
2024/01/20 08:10:12;;;;;;;41.78;20.70;;;1.00;99.90;;;;;;5053768;28;20313;-47
2024/01/20 08:12:38;;;;;;;42.22;20.75;;;1.10;99.90;;;;;;5057626;28;20036;-47
2024/01/20 08:15:05;;;;;;;38.25;20.75;;;1.00;99.90;;;;;;5060484;28;20046;-47
2024/01/20 08:17:31;;;;;;;38.28;21.90;;;1.10;99.90;;;;;;5060771;28;20190;-49
2024/01/20 08:19:57;;;;;;;41.60;21.60;;;1.10;99.90;;;;;;5061787;28;20051;-45
2024/01/20 08:22:22;;;;;;;36.70;21.10;;;1.10;99.90;;;;;;5049048;28;20041;-49
2024/01/20 08:24:48;;;;;;;42.83;21.58;;;1.10;99.90;;;;;;5061054;28;20123;-46
2024/01/20 08:27:14;;;;;;;40.83;21.75;;;1.10;99.90;;;;;;5059878;28;20052;-46
2024/01/20 08:29:39;;;;;;;39.25;22.88;;;1.10;99.90;;;;;;5059972;28;20044;-47
2024/01/20 08:32:05;;;;;;;40.22;20.75;;;1.00;99.90;;;;;;5048495;28;20427;-46
2024/01/20 08:34:31;;;;;;;47.13;23.13;;;0.70;99.90;;;;;;5060863;28;20044;-46
2024/01/20 08:36:57;;;;;;;38.13;21.73;;;1.10;99.90;;;;;;5063102;28;20047;-50
2024/01/20 08:39:23;;;;;;;41.03;23.02;;;1.10;99.90;;;;;;5062889;28;20082;-47
2024/01/20 08:41:49;;;;;;;45.70;23.05;;;1.20;99.90;;;;;;5062790;28;20041;-50
2024/01/20 08:44:14;;;;;;;42.70;21.20;;;1.20;99.90;;;;;;5063300;28;20956;-48
2024/01/20 08:46:40;;;;;;;42.97;23.25;;;1.20;99.90;;;;;;5062365;28;20044;-45
2024/01/20 08:49:06;;;;;;;39.72;22.70;;;1.10;99.90;;;;;;5060095;28;20521;-47
2024/01/20 08:51:32;;;;;;;39.20;22.35;;;1.20;99.90;;;;;;5063692;28;20147;-50
2024/01/20 08:53:58;;;;;;;41.92;22.50;;;1.20;99.90;;;;;;5063040;28;20106;-47
2024/01/20 08:56:24;;;;;;;38.58;22.15;;;1.30;99.90;;;;;;5061792;28;20165;-47
2024/01/20 08:58:50;;;;;;;40.35;22.50;;;1.20;99.90;;;;;;5061386;28;20543;-48
2024/01/20 09:01:17;;;;;;;38.92;22.58;;;1.20;99.90;;;;;;5063027;28;20035;-49
2024/01/20 10:09:42;;;;;;;40.60;22.60;;;1.80;99.90;;;;;;5168841;27;20431;-62
2024/01/20 10:12:09;;;;;;;40.65;22.15;;;2.00;99.90;;;;;;5161071;27;20096;-63
2024/01/20 10:14:34;;;;;;;34.92;20.52;;;2.00;99.90;;;;;;5159609;27;20137;-63
2024/01/20 10:17:00;;;;;;;37.90;20.58;;;2.10;99.90;;;;;;5159976;27;20049;-62
2024/01/20 10:19:44;;;;;;;33.75;20.35;;;2.10;99.90;;;;;;5155914;27;20494;-62
2024/01/20 10:22:11;;;;;;;41.65;21.02;;;2.10;99.90;;;;;;5159641;27;20031;-63
2024/01/20 10:24:51;;;;;;;41.38;20.48;;;2.10;99.90;;;;;;5159076;27;20221;-63
2024/01/20 10:27:18;;;;;;;33.67;18.50;;;2.10;99.90;;;;;;5141908;27;20117;-63
2024/01/20 10:29:46;;;;;;;35.10;17.33;;;2.20;99.90;;;;;;5160965;27;20310;-63
2024/01/20 10:32:12;;;;;;;35.03;18.80;;;2.20;99.90;;;;;;5161224;27;20026;-63
2024/01/20 10:34:37;;;;;;;33.28;19.48;;;2.20;99.90;;;;;;5161038;27;20031;-63
2024/01/20 10:37:12;;;;;;;32.42;18.77;;;2.30;99.90;;;;;;5161062;27;20937;-62
2024/01/20 10:39:45;;;;;;;30.92;18.80;;;2.30;99.90;;;;;;5158647;27;20066;-63
2024/01/20 10:42:13;;;;;;;40.40;18.70;;;2.30;99.90;;;;;;5158874;27;20034;-62
2024/01/20 10:45:06;;;;;;;35.60;19.17;;;2.30;99.90;;;;;;5159159;27;20043;-63
2024/01/20 10:47:37;;;;;;;34.72;19.33;;;2.30;99.90;;;;;;5159008;27;20667;-63
2024/01/20 10:50:07;;;;;;;34.05;18.25;;;2.30;99.90;;;;;;5159663;27;20042;-63
2024/01/20 10:52:38;;;;;;;37.00;19.70;;;2.30;99.90;;;;;;5160886;27;20424;-63
2024/01/20 10:55:05;;;;;;;37.90;19.45;;;2.30;99.90;;;;;;5158683;27;20049;-63
2024/01/20 10:57:34;;;;;;;35.45;18.92;;;2.40;99.90;;;;;;5141328;27;20489;-64
2024/01/20 11:00:01;;;;;;;34.63;18.50;;;2.40;99.90;;;;;;5158793;27;20046;-64
2024/01/20 11:02:27;;;;;;;35.38;18.15;;;2.40;99.90;;;;;;5160341;27;20066;-63
2024/01/20 11:04:54;;;;;;;34.30;18.08;;;2.40;99.90;;;;;;5159424;27;20754;-64
2024/01/20 11:07:24;;;;;;;34.90;18.85;;;2.40;99.90;;;;;;5158406;27;20035;-63
2024/01/20 11:09:57;;;;;;;34.38;18.42;;;2.40;99.90;;;;;;5144744;27;20117;-64
2024/01/20 11:12:24;;;;;;;34.05;17.92;;;2.40;99.90;;;;;;5146424;27;20038;-64
2024/01/20 11:14:52;;;;;;;41.70;19.38;;;2.40;99.90;;;;;;5143265;27;20078;-63
2024/01/20 11:17:18;;;;;;;34.17;18.67;;;2.50;99.90;;;;;;5144390;27;20058;-63
2024/01/20 11:19:45;;;;;;;40.75;20.88;;;2.40;99.90;;;;;;5141735;27;20031;-63
2024/01/20 11:22:34;;;;;;;36.38;19.00;;;2.50;99.90;;;;;;5145121;27;20141;-64
2024/01/20 11:25:07;;;;;;;38.72;19.58;;;2.50;99.90;;;;;;5145208;27;20541;-64
2024/01/20 11:27:50;;;;;;;37.28;19.63;;;2.50;99.90;;;;;;5144704;27;20129;-63
2024/01/20 11:30:33;;;;;;;32.17;18.90;;;2.50;99.90;;;;;;5144239;27;20395;-63
2024/01/20 11:32:59;;;;;;;35.58;19.58;;;2.50;99.90;;;;;;5144386;27;20079;-63
2024/01/20 11:35:25;;;;;;;37.60;19.85;;;2.50;99.90;;;;;;5145130;27;20505;-63
2024/01/20 11:37:54;;;;;;;35.30;18.67;;;2.50;99.90;;;;;;5140823;27;20070;-63
2024/01/20 11:40:21;;;;;;;33.67;19.48;;;2.50;99.90;;;;;;5144188;27;20806;-63
2024/01/20 11:42:47;;;;;;;32.47;20.42;;;2.50;99.90;;;;;;5145450;27;20048;-64
2024/01/20 11:45:13;;;;;;;43.15;20.90;;;2.50;99.90;;;;;;5146434;27;20031;-63
2024/01/20 11:47:40;;;;;;;37.67;19.73;;;2.50;99.90;;;;;;5145688;27;20042;-63
2024/01/20 11:50:06;;;;;;;35.40;19.95;;;2.50;99.90;;;;;;5143561;27;20034;-63
2024/01/20 11:52:32;;;;;;;34.95;19.98;;;2.50;99.90;;;;;;5145398;27;20039;-63
2024/01/20 11:54:58;;;;;;;32.95;19.70;;;2.50;99.90;;;;;;5142040;27;20050;-63
2024/01/20 11:57:29;;;;;;;36.00;19.98;;;2.60;99.90;;;;;;5144629;27;20046;-63
2024/01/20 11:59:57;;;;;;;43.85;22.52;;;2.50;99.90;;;;;;5145035;27;20397;-63
2024/01/20 12:02:24;;;;;;;37.33;21.85;;;2.50;99.90;;;;;;5144804;27;20115;-63
2024/01/20 12:04:50;;;;;;;35.08;20.40;;;2.60;99.90;;;;;;5143910;27;20031;-64
2024/01/20 12:07:17;;;;;;;40.75;21.75;;;2.60;99.90;;;;;;5143944;27;20061;-64
2024/01/20 12:09:46;;;;;;;40.63;21.38;;;2.60;99.90;;;;;;5143190;27;20117;-63
2024/01/20 12:12:13;;;;;;;42.95;23.55;;;2.60;99.90;;;;;;5144150;27;20043;-63
2024/01/20 12:14:45;;;;;;;37.03;22.38;;;2.60;99.90;;;;;;5136857;27;20134;-63
2024/01/20 12:17:11;;;;;;;42.53;23.50;;;2.70;99.90;;;;;;5138592;27;20073;-63
2024/01/20 12:19:41;;;;;;;39.65;22.58;;;2.70;99.90;;;;;;5141554;27;20133;-63
2024/01/20 12:22:07;;;;;;;;;;;2.70;99.90;;;;;;5135169;27;20411;-63
2024/01/20 12:24:33;;;;;;;38.15;22.48;;;2.80;99.90;;;;;;5141396;27;20374;-63
2024/01/20 12:27:04;;;;;;;39.95;22.60;;;2.90;99.90;;;;;;5141261;27;20071;-63
2024/01/20 12:29:30;;;;;;;43.60;23.10;;;2.90;99.90;;;;;;5141563;27;20572;-62
2024/01/20 12:31:59;;;;;;;39.83;21.88;;;3.00;99.90;;;;;;5142137;27;20035;-62
2024/01/20 12:34:26;;;;;;;36.85;21.38;;;3.00;99.90;;;;;;5141935;27;20039;-62
2024/01/20 12:36:55;;;;;;;37.10;21.75;;;3.00;99.90;;;;;;5140043;27;20153;-61
2024/01/20 12:39:22;;;;;;;40.28;21.52;;;3.00;99.90;;;;;;5142186;27;20125;-62
2024/01/20 12:41:49;;;;;;;39.05;22.90;;;3.00;99.90;;;;;;5141299;27;20035;-62
2024/01/20 12:44:15;;;;;;;40.00;22.25;;;3.00;99.90;;;;;;5144724;27;20038;-62
2024/01/20 12:46:41;;;;;;;39.97;23.08;;;3.00;99.90;;;;;;5143538;27;20331;-62
2024/01/20 12:49:07;;;;;;;40.83;21.20;;;3.00;99.90;;;;;;5142988;27;20039;-62
2024/01/20 12:51:33;;;;;;;42.22;21.10;;;3.00;99.90;;;;;;5124432;27;20038;-62
2024/01/20 12:53:59;;;;;;;37.22;21.23;;;3.00;99.90;;;;;;5135907;27;20034;-63
2024/01/20 12:56:25;;;;;;;35.00;21.15;;;3.10;99.90;;;;;;5141550;27;20039;-63
2024/01/20 12:58:51;;;;;;;37.47;21.88;;;3.10;99.90;;;;;;5141594;27;20034;-63
2024/01/20 13:01:18;;;;;;;40.15;20.50;;;3.10;99.90;;;;;;5140512;27;20405;-62
2024/01/20 13:03:44;;;;;;;36.58;21.17;;;3.20;99.90;;;;;;5140724;27;20317;-62
2024/01/20 13:06:09;;;;;;;39.45;20.40;;;3.20;99.90;;;;;;5143444;27;20038;-63
2024/01/20 13:08:35;;;;;;;34.35;19.42;;;3.20;99.90;;;;;;5141887;27;20337;-63
2024/01/20 13:11:01;;;;;;;37.10;20.23;;;3.20;99.90;;;;;;5142502;27;20540;-64
2024/01/20 13:13:27;;;;;;;33.85;19.52;;;3.20;99.90;;;;;;5140490;27;20030;-61
2024/01/20 13:15:53;;;;;;;35.13;19.48;;;3.20;99.90;;;;;;5138243;27;20039;-62
2024/01/20 13:18:18;;;;;;;30.85;19.92;;;3.20;99.90;;;;;;5140002;27;20045;-62
2024/01/20 13:20:44;;;;;;;31.63;18.42;;;3.20;99.90;;;;;;5143644;27;20034;-61
2024/01/20 13:23:10;;;;;;;37.35;19.25;;;3.20;99.90;;;;;;5141127;27;20516;-62
2024/01/20 13:25:39;;;;;;;34.83;17.98;;;3.20;99.90;;;;;;5141477;27;20061;-62
2024/01/20 13:28:05;;;;;;;35.70;18.50;;;3.20;99.90;;;;;;5140857;27;20042;-62
2024/01/20 13:30:31;;;;;;;28.67;17.45;;;3.20;99.90;;;;;;5142284;27;20043;-63
2024/01/20 13:32:57;;;;;;;32.05;17.77;;;3.20;99.90;;;;;;5123001;27;20035;-62
2024/01/20 13:35:23;;;;;;;28.40;16.50;;;3.30;99.90;;;;;;5142634;27;20042;-62
2024/01/20 13:37:49;;;;;;;29.75;16.33;;;3.20;99.90;;;;;;5142784;27;20045;-62
2024/01/20 13:40:15;;;;;;;25.02;16.13;;;3.20;99.90;;;;;;5142854;27;20117;-62
2024/01/20 13:42:41;;;;;;;31.50;16.85;;;3.20;99.90;;;;;;5142475;27;20049;-63